Time;durP1;ratioP1;P1;durP2;ratioP2;P2;SDS_P1;SDS_P2;PMS_P1;PMS_P2;Temp;Humidity;BMP_temperature;BMP_pressure;BME280_temperature;BME280_humidity;BME280_pressure;Samples;Min_cycle;Max_cycle;Signal;HPM_P1;HPM_P2
2022/04/13 00:00:06;;;;;;;3.30;3.00;;;12.20;99.90;;;;;;4899820;29;20234;-59
2022/04/13 00:02:37;;;;;;;4.47;3.63;;;12.10;99.90;;;;;;4900761;29;20243;-59
2022/04/13 00:05:07;;;;;;;4.50;3.40;;;12.10;99.90;;;;;;4895721;29;20252;-59
2022/04/13 00:07:37;;;;;;;4.90;3.80;;;12.10;99.90;;;;;;4897237;29;20646;-58
2022/04/13 00:10:07;;;;;;;7.23;3.70;;;12.10;99.90;;;;;;4902844;29;20702;-59
2022/04/13 00:12:35;;;;;;;4.20;3.37;;;12.00;99.90;;;;;;4905114;29;20246;-59
2022/04/13 00:15:06;;;;;;;4.90;3.50;;;12.00;99.90;;;;;;4899397;29;20240;-59
2022/04/13 00:17:35;;;;;;;3.77;3.30;;;12.00;99.90;;;;;;4898796;29;20259;-59
2022/04/13 00:20:04;;;;;;;6.73;3.53;;;11.90;99.90;;;;;;4906930;29;20240;-59
2022/04/13 00:22:32;;;;;;;6.07;3.63;;;11.90;99.90;;;;;;4904589;29;20398;-59
2022/04/13 00:25:02;;;;;;;5.77;3.33;;;11.90;99.90;;;;;;4899055;29;20700;-59
2022/04/13 00:27:33;;;;;;;6.83;3.83;;;11.80;99.90;;;;;;4898581;29;20329;-59
2022/04/13 00:30:02;;;;;;;7.47;3.60;;;11.80;99.90;;;;;;4900192;29;20267;-59
2022/04/13 00:32:32;;;;;;;6.93;3.90;;;11.80;99.90;;;;;;4898311;29;20243;-59
2022/04/13 00:35:03;;;;;;;4.53;3.70;;;11.70;99.90;;;;;;4901625;29;20287;-59
2022/04/13 00:37:32;;;;;;;5.77;3.67;;;11.70;99.90;;;;;;4898979;29;20241;-59
2022/04/13 00:40:01;;;;;;;5.20;3.33;;;11.70;99.90;;;;;;4898347;29;20243;-59
2022/04/13 00:42:30;;;;;;;5.80;3.53;;;11.60;99.90;;;;;;4903855;29;20250;-59
2022/04/13 00:44:58;;;;;;;4.53;3.33;;;11.60;99.90;;;;;;4898589;29;20255;-59
2022/04/13 00:47:26;;;;;;;4.73;3.90;;;11.60;99.90;;;;;;4898195;29;20248;-59
2022/04/13 00:49:54;;;;;;;5.97;4.00;;;11.60;99.90;;;;;;4898645;29;20247;-59
2022/04/13 00:52:27;;;;;;;4.47;3.60;;;11.50;99.90;;;;;;4898169;29;20300;-59
2022/04/13 00:54:56;;;;;;;5.60;3.40;;;11.50;99.90;;;;;;4900450;29;20251;-59
2022/04/13 00:57:28;;;;;;;4.33;3.40;;;11.50;99.90;;;;;;4899908;29;20240;-59
2022/04/13 00:59:58;;;;;;;6.60;3.43;;;11.50;99.90;;;;;;4901501;29;20246;-59
2022/04/13 01:02:28;;;;;;;7.60;3.73;;;11.50;99.90;;;;;;4904739;29;20259;-59
2022/04/13 01:05:02;;;;;;;5.63;4.10;;;11.50;99.90;;;;;;4898419;29;20244;-59
2022/04/13 01:07:30;;;;;;;4.87;4.10;;;11.50;99.90;;;;;;4898017;29;20244;-59
2022/04/13 01:10:00;;;;;;;7.20;3.80;;;11.50;99.90;;;;;;4900930;29;20242;-59
2022/04/13 01:12:30;;;;;;;5.60;4.20;;;11.50;99.90;;;;;;4904750;29;20251;-59
2022/04/13 01:14:58;;;;;;;6.53;4.23;;;11.50;99.90;;;;;;4897954;29;20636;-58
2022/04/13 01:17:26;;;;;;;5.67;4.10;;;11.40;99.90;;;;;;4897927;29;20250;-59
2022/04/13 01:19:56;;;;;;;6.33;4.03;;;11.40;99.90;;;;;;4902862;29;20246;-59
2022/04/13 01:22:26;;;;;;;6.60;3.90;;;11.40;99.90;;;;;;4897665;29;20247;-59
2022/04/13 01:24:54;;;;;;;6.93;4.53;;;11.40;99.90;;;;;;4897913;29;20280;-59
2022/04/13 01:27:22;;;;;;;5.23;4.10;;;11.40;99.90;;;;;;4897638;29;20243;-59
2022/04/13 01:29:54;;;;;;;5.73;3.80;;;11.40;99.90;;;;;;4897103;29;20335;-58
2022/04/13 01:32:23;;;;;;;6.00;3.70;;;11.40;99.90;;;;;;4897438;29;20250;-59
2022/04/13 01:34:53;;;;;;;7.77;4.20;;;11.40;99.90;;;;;;4897719;29;20244;-59
2022/04/13 01:37:22;;;;;;;4.77;3.73;;;11.40;99.90;;;;;;4897620;29;20238;-59
2022/04/13 01:39:52;;;;;;;6.23;4.13;;;11.40;99.90;;;;;;4897745;29;20276;-59
2022/04/13 01:42:20;;;;;;;5.83;3.90;;;11.40;99.90;;;;;;4903150;29;20246;-59
2022/04/13 01:44:48;;;;;;;5.43;3.87;;;11.40;99.90;;;;;;4897624;29;20302;-59
2022/04/13 01:47:15;;;;;;;4.93;4.10;;;11.40;99.90;;;;;;4897479;29;20240;-59
2022/04/13 01:49:43;;;;;;;5.93;4.10;;;11.40;99.90;;;;;;4897906;29;20724;-59
2022/04/13 01:52:12;;;;;;;6.53;3.90;;;11.30;99.90;;;;;;4900692;29;20251;-59
2022/04/13 01:54:40;;;;;;;6.20;4.20;;;11.30;99.90;;;;;;4878780;29;20241;-58
2022/04/13 01:57:10;;;;;;;5.93;4.43;;;11.30;99.90;;;;;;4897822;29;20248;-59
2022/04/13 01:59:38;;;;;;;6.53;4.43;;;11.30;99.90;;;;;;4898351;29;20236;-59
2022/04/13 02:02:07;;;;;;;7.73;4.03;;;11.30;99.90;;;;;;4893212;29;20241;-59
2022/04/13 02:04:35;;;;;;;6.67;4.00;;;11.20;99.90;;;;;;4897163;29;20266;-59
2022/04/13 02:07:03;;;;;;;5.40;3.77;;;11.20;99.90;;;;;;4901259;29;20329;-59
2022/04/13 02:09:32;;;;;;;4.90;3.70;;;11.20;99.90;;;;;;4896934;29;20248;-59
2022/04/13 02:12:00;;;;;;;5.80;4.20;;;11.20;99.90;;;;;;4906939;29;20262;-59
2022/04/13 02:14:30;;;;;;;6.87;3.73;;;11.20;99.90;;;;;;4896823;29;20260;-58
2022/04/13 02:16:58;;;;;;;6.33;4.17;;;11.20;99.90;;;;;;4896881;29;20248;-59
2022/04/13 02:19:26;;;;;;;6.13;4.10;;;11.20;99.90;;;;;;4896414;29;20244;-59
2022/04/13 02:21:54;;;;;;;4.37;3.70;;;11.20;99.90;;;;;;4903809;29;20268;-59
2022/04/13 02:24:23;;;;;;;5.47;4.27;;;11.20;99.90;;;;;;4898997;29;20329;-59
2022/04/13 02:26:51;;;;;;;5.80;4.20;;;11.20;99.90;;;;;;4896894;29;20239;-59
2022/04/13 02:29:19;;;;;;;5.40;4.10;;;11.20;99.90;;;;;;4897551;29;20322;-59
2022/04/13 02:31:49;;;;;;;4.90;3.47;;;11.20;99.90;;;;;;4896489;29;20241;-59
2022/04/13 02:34:17;;;;;;;5.23;3.67;;;11.20;99.90;;;;;;4896412;29;20334;-59
2022/04/13 02:36:46;;;;;;;6.60;4.07;;;11.20;99.90;;;;;;4900421;29;20322;-59
2022/04/13 02:39:14;;;;;;;4.97;4.10;;;11.10;99.90;;;;;;4896730;29;20240;-58
2022/04/13 02:41:42;;;;;;;5.90;4.27;;;11.10;99.90;;;;;;4901557;29;20248;-59
2022/04/13 02:44:10;;;;;;;7.07;4.40;;;11.10;99.90;;;;;;4896459;29;20248;-59
2022/04/13 02:46:39;;;;;;;6.77;4.33;;;11.10;99.90;;;;;;4896636;29;20239;-59
2022/04/13 02:49:08;;;;;;;5.53;3.93;;;11.10;99.90;;;;;;4896786;29;20239;-59
2022/04/13 02:51:36;;;;;;;6.70;4.23;;;11.10;99.90;;;;;;4900215;29;20243;-59
2022/04/13 02:54:05;;;;;;;5.53;4.30;;;11.10;99.90;;;;;;4896637;29;20240;-59
2022/04/13 02:56:33;;;;;;;5.60;3.90;;;11.10;99.90;;;;;;4896174;29;20247;-59
2022/04/13 02:59:01;;;;;;;8.50;4.77;;;11.10;99.90;;;;;;4896327;29;20247;-59
2022/04/13 03:01:33;;;;;;;5.57;4.20;;;11.10;99.90;;;;;;4899897;29;20279;-59
2022/04/13 03:04:01;;;;;;;6.93;4.63;;;11.10;99.90;;;;;;4900907;29;20301;-58
2022/04/13 03:06:30;;;;;;;5.67;4.10;;;11.10;99.90;;;;;;4900029;29;20240;-59
2022/04/13 03:08:59;;;;;;;8.17;4.53;;;11.10;99.90;;;;;;4896079;29;20250;-59
2022/04/13 03:11:27;;;;;;;7.83;4.30;;;11.00;99.90;;;;;;4901499;29;20245;-59
2022/04/13 03:13:55;;;;;;;6.90;4.50;;;11.00;99.90;;;;;;4896070;29;20239;-59
2022/04/13 03:16:23;;;;;;;7.77;4.30;;;11.00;99.90;;;;;;4895712;29;20234;-59
2022/04/13 03:18:51;;;;;;;6.67;4.47;;;11.00;99.90;;;;;;4898033;29;20257;-59
2022/04/13 03:21:19;;;;;;;6.03;4.40;;;11.10;99.90;;;;;;4897920;29;20249;-59
2022/04/13 03:23:49;;;;;;;7.27;4.63;;;11.10;99.90;;;;;;4901166;29;20357;-59
2022/04/13 03:26:17;;;;;;;5.67;4.30;;;11.00;99.90;;;;;;4895616;29;20254;-59
2022/04/13 03:28:45;;;;;;;7.57;4.77;;;10.90;99.90;;;;;;4895752;29;20666;-58
2022/04/13 03:31:13;;;;;;;6.50;4.40;;;10.90;99.90;;;;;;4896781;29;20241;-60
2022/04/13 03:33:41;;;;;;;6.87;4.60;;;10.80;99.90;;;;;;4895547;29;20279;-59
2022/04/13 03:36:10;;;;;;;7.10;4.57;;;10.80;99.90;;;;;;4900030;29;20255;-59
2022/04/13 03:38:38;;;;;;;5.67;4.40;;;10.80;99.90;;;;;;4894797;29;20677;-59
2022/04/13 03:41:07;;;;;;;6.43;4.77;;;10.80;99.90;;;;;;4900119;29;20352;-59
2022/04/13 03:43:35;;;;;;;6.97;4.70;;;10.70;99.90;;;;;;4895582;29;20779;-59
2022/04/13 03:46:06;;;;;;;5.70;4.43;;;10.70;99.90;;;;;;4895466;29;20326;-59
2022/04/13 03:48:35;;;;;;;7.33;4.87;;;10.70;99.90;;;;;;4895261;29;20263;-59
2022/04/13 03:51:03;;;;;;;6.70;4.73;;;10.70;99.90;;;;;;4895649;29;20236;-59
2022/04/13 03:53:31;;;;;;;6.93;4.83;;;10.70;99.90;;;;;;4895381;29;20266;-59
2022/04/13 03:55:59;;;;;;;6.93;4.43;;;10.70;99.90;;;;;;4895472;29;20243;-58
2022/04/13 03:58:29;;;;;;;6.23;4.80;;;10.70;99.90;;;;;;4895086;29;20661;-59
2022/04/13 04:00:57;;;;;;;7.30;4.53;;;10.60;99.90;;;;;;4900020;29;20713;-59
2022/04/13 04:03:25;;;;;;;5.47;4.47;;;10.70;99.90;;;;;;4900474;29;20266;-59
2022/04/13 04:05:54;;;;;;;6.77;5.07;;;10.60;99.90;;;;;;4895277;29;20243;-59
2022/04/13 04:08:23;;;;;;;7.10;4.30;;;10.70;99.90;;;;;;4895667;29;20251;-59
2022/04/13 04:10:51;;;;;;;8.70;5.07;;;10.70;99.90;;;;;;4902384;29;20243;-59
2022/04/13 04:13:20;;;;;;;7.83;4.70;;;10.60;99.90;;;;;;4897713;29;20329;-59
2022/04/13 04:15:49;;;;;;;6.43;4.73;;;10.60;99.90;;;;;;4895266;29;20259;-59
2022/04/13 04:18:17;;;;;;;7.40;4.53;;;10.60;99.90;;;;;;4895431;29;20805;-59
2022/04/13 04:20:46;;;;;;;7.83;4.53;;;10.50;99.90;;;;;;4903664;29;20242;-59
2022/04/13 04:23:15;;;;;;;10.57;4.93;;;10.50;99.90;;;;;;4900381;29;20242;-59
2022/04/13 04:25:43;;;;;;;7.80;4.90;;;10.50;99.90;;;;;;4895353;29;20701;-59
2022/04/13 04:28:11;;;;;;;7.97;4.87;;;10.50;99.90;;;;;;4895162;29;20295;-59
2022/04/13 04:30:40;;;;;;;6.87;4.83;;;10.50;99.90;;;;;;4896494;29;20611;-59
2022/04/13 04:33:12;;;;;;;7.77;4.93;;;10.40;99.90;;;;;;4893273;29;20607;-59
2022/04/13 04:35:41;;;;;;;6.43;5.00;;;10.40;99.90;;;;;;4894822;29;20585;-59
2022/04/13 04:38:09;;;;;;;6.53;5.00;;;10.40;99.90;;;;;;4895603;29;20248;-59
2022/04/13 04:40:37;;;;;;;13.47;5.83;;;10.40;99.90;;;;;;4895925;29;20236;-59
2022/04/13 04:43:05;;;;;;;8.50;5.57;;;10.40;99.90;;;;;;4900451;29;20600;-59
2022/04/13 04:45:33;;;;;;;6.27;4.50;;;10.40;99.90;;;;;;4898728;29;20241;-59
2022/04/13 04:48:04;;;;;;;6.80;5.50;;;10.40;99.90;;;;;;4894996;29;20319;-59
2022/04/13 04:50:36;;;;;;;8.33;6.10;;;10.40;99.90;;;;;;4894775;29;20271;-59
2022/04/13 04:53:04;;;;;;;7.03;5.03;;;10.40;99.90;;;;;;4896013;29;20238;-59
2022/04/13 04:55:32;;;;;;;9.63;5.87;;;10.40;99.90;;;;;;4898200;29;20251;-59
2022/04/13 04:58:02;;;;;;;7.73;5.23;;;10.40;99.90;;;;;;4898319;29;20331;-59
2022/04/13 05:00:35;;;;;;;7.63;5.43;;;10.40;99.90;;;;;;4903241;29;20307;-59
2022/04/13 05:03:03;;;;;;;7.67;5.27;;;10.40;99.90;;;;;;4903753;29;20240;-59
2022/04/13 05:05:35;;;;;;;5.70;4.37;;;10.40;99.90;;;;;;4902108;29;20295;-59
2022/04/13 05:08:03;;;;;;;7.63;5.40;;;10.50;99.90;;;;;;4898572;29;20239;-59
2022/04/13 05:10:31;;;;;;;7.13;5.37;;;10.50;99.90;;;;;;4898146;29;20238;-59
2022/04/13 05:12:59;;;;;;;6.07;4.83;;;10.50;99.90;;;;;;4898396;29;20238;-59
2022/04/13 05:15:28;;;;;;;6.57;4.77;;;10.50;99.90;;;;;;4897716;29;20244;-59
2022/04/13 05:17:56;;;;;;;6.60;4.97;;;10.60;99.90;;;;;;4898266;29;20244;-59
2022/04/13 05:20:24;;;;;;;7.60;5.30;;;10.60;99.90;;;;;;4897680;29;20294;-59
2022/04/13 05:22:54;;;;;;;6.77;4.67;;;10.60;99.90;;;;;;4897959;29;20242;-59
2022/04/13 05:25:22;;;;;;;6.80;5.10;;;10.60;99.90;;;;;;4897633;29;20255;-59
2022/04/13 05:27:50;;;;;;;7.50;5.03;;;10.70;99.90;;;;;;4897864;29;20632;-59
2022/04/13 05:30:18;;;;;;;7.03;4.80;;;10.70;99.90;;;;;;4898854;29;20243;-59
2022/04/13 05:32:48;;;;;;;7.03;5.00;;;10.70;99.90;;;;;;4897558;29;20299;-59
2022/04/13 05:35:16;;;;;;;6.57;5.13;;;10.70;99.90;;;;;;4901780;29;20270;-58
2022/04/13 05:37:45;;;;;;;7.97;5.27;;;10.80;99.90;;;;;;4897712;29;20243;-59
2022/04/13 05:40:14;;;;;;;8.40;5.83;;;10.80;99.90;;;;;;4902008;29;20770;-59
2022/04/13 05:42:43;;;;;;;7.40;5.57;;;10.90;99.90;;;;;;4902915;29;20742;-59
2022/04/13 05:45:13;;;;;;;7.63;5.43;;;11.00;99.90;;;;;;4897721;29;20253;-59
2022/04/13 05:47:42;;;;;;;7.37;5.23;;;11.00;99.90;;;;;;4897041;29;20243;-59
2022/04/13 05:50:11;;;;;;;7.73;5.50;;;11.10;99.90;;;;;;4897638;29;20267;-58
2022/04/13 05:52:39;;;;;;;7.53;4.83;;;11.10;99.90;;;;;;4897762;29;20303;-59
2022/04/13 05:55:08;;;;;;;8.37;5.33;;;11.10;99.90;;;;;;4897731;29;20251;-59
2022/04/13 05:57:38;;;;;;;6.83;5.13;;;11.30;99.90;;;;;;4897014;29;20244;-59
2022/04/13 06:00:10;;;;;;;7.40;5.10;;;11.30;99.90;;;;;;4898503;29;20243;-59
2022/04/13 06:02:39;;;;;;;6.77;4.67;;;11.30;99.90;;;;;;4897276;29;20244;-59
2022/04/13 06:05:08;;;;;;;8.33;5.27;;;11.40;99.90;;;;;;4896501;29;20342;-59
2022/04/13 06:07:38;;;;;;;7.07;5.40;;;11.50;99.90;;;;;;4897130;29;20260;-59
2022/04/13 06:10:06;;;;;;;7.37;5.40;;;11.50;99.90;;;;;;4897453;29;20240;-59
2022/04/13 06:12:35;;;;;;;10.10;5.97;;;11.50;99.90;;;;;;4896990;29;20274;-59
2022/04/13 06:15:06;;;;;;;7.67;5.47;;;11.60;99.90;;;;;;4897179;29;20242;-59
2022/04/13 06:17:35;;;;;;;7.53;5.10;;;11.50;99.90;;;;;;4896693;29;20233;-59
2022/04/13 06:20:05;;;;;;;7.47;5.50;;;11.60;99.90;;;;;;4896832;29;20709;-59
2022/04/13 06:22:33;;;;;;;8.00;5.80;;;11.60;99.90;;;;;;4901835;29;20283;-59
2022/04/13 06:25:03;;;;;;;6.90;5.30;;;11.60;99.90;;;;;;4899660;29;20248;-59
2022/04/13 06:27:31;;;;;;;9.27;6.13;;;11.60;99.90;;;;;;4897406;29;20236;-59
2022/04/13 06:29:59;;;;;;;9.50;5.97;;;11.70;99.90;;;;;;4897740;29;20250;-59
2022/04/13 06:32:36;;;;;;;7.93;5.20;;;11.70;99.90;;;;;;4896217;29;20319;-58
2022/04/13 06:35:06;;;;;;;10.70;6.10;;;11.80;99.90;;;;;;4896810;29;20292;-59
2022/04/13 06:37:36;;;;;;;8.90;6.03;;;11.90;99.90;;;;;;4896425;29;20244;-59
2022/04/13 06:40:06;;;;;;;7.77;5.53;;;11.90;99.90;;;;;;4896541;29;20244;-59
2022/04/13 06:42:34;;;;;;;9.43;6.23;;;12.10;99.90;;;;;;4896281;29;20260;-59
2022/04/13 06:45:02;;;;;;;9.77;6.60;;;12.10;99.90;;;;;;4896289;29;20771;-59
2022/04/13 06:47:31;;;;;;;9.50;6.80;;;12.20;99.90;;;;;;4896287;29;20260;-59
2022/04/13 06:50:00;;;;;;;9.03;6.13;;;12.20;99.90;;;;;;4896500;29;20248;-59
2022/04/13 06:52:32;;;;;;;8.33;6.03;;;12.30;99.90;;;;;;4896044;29;20236;-59
2022/04/13 06:55:00;;;;;;;8.93;6.13;;;12.30;99.90;;;;;;4896718;29;20242;-59
2022/04/13 06:57:28;;;;;;;8.60;5.73;;;12.40;99.90;;;;;;4896341;29;20331;-59
2022/04/13 07:00:01;;;;;;;9.37;5.90;;;12.50;99.90;;;;;;4897277;29;20376;-59
2022/04/13 07:02:29;;;;;;;9.17;6.70;;;12.60;99.90;;;;;;4895796;29;20240;-59
2022/04/13 07:04:57;;;;;;;9.83;6.40;;;12.50;99.90;;;;;;4896123;29;20243;-59
2022/04/13 07:07:27;;;;;;;9.47;6.33;;;12.60;99.90;;;;;;4895928;29;20262;-58
2022/04/13 07:09:55;;;;;;;9.67;5.73;;;12.90;99.90;;;;;;4895944;29;20332;-59
2022/04/13 07:12:23;;;;;;;8.40;7.13;;;13.10;99.90;;;;;;4894466;29;20291;-59
2022/04/13 07:14:51;;;;;;;8.20;6.33;;;13.40;99.90;;;;;;4896053;29;20236;-59
2022/04/13 07:17:19;;;;;;;9.53;6.63;;;13.70;99.90;;;;;;4895942;29;20268;-59
2022/04/13 07:19:47;;;;;;;9.70;6.87;;;13.80;99.90;;;;;;4895505;29;20701;-59
2022/04/13 07:22:15;;;;;;;8.80;6.47;;;13.90;99.90;;;;;;4895569;29;20248;-59
2022/04/13 07:24:45;;;;;;;10.17;6.60;;;14.10;99.90;;;;;;4895514;29;20721;-59
2022/04/13 07:27:13;;;;;;;9.43;6.67;;;14.20;99.90;;;;;;4895813;29;20329;-59
2022/04/13 07:29:41;;;;;;;9.93;6.83;;;14.40;99.90;;;;;;4896888;29;20732;-59
2022/04/13 07:32:09;;;;;;;8.23;6.83;;;14.50;99.90;;;;;;4895932;29;20244;-59
2022/04/13 07:34:37;;;;;;;10.87;7.10;;;14.40;99.90;;;;;;4895711;29;20664;-59
2022/04/13 07:37:06;;;;;;;7.77;6.33;;;14.50;99.90;;;;;;4899809;29;20241;-59
2022/04/13 07:39:34;;;;;;;9.73;6.40;;;14.60;99.90;;;;;;4895590;29;20244;-59
2022/04/13 07:42:04;;;;;;;8.40;6.77;;;14.70;99.90;;;;;;4895324;29;20237;-59
2022/04/13 07:44:32;;;;;;;8.77;6.20;;;14.90;99.90;;;;;;4895471;29;20248;-59
2022/04/13 07:47:22;;;;;;;9.07;6.60;;;15.20;99.90;;;;;;4893093;29;20772;-59
2022/04/13 07:49:51;;;;;;;11.80;7.10;;;15.40;99.90;;;;;;4895324;29;20844;-60
2022/04/13 07:52:19;;;;;;;12.83;7.40;;;15.50;99.90;;;;;;4895528;29;20243;-59
2022/04/13 07:54:47;;;;;;;9.87;6.37;;;15.80;99.90;;;;;;4895340;29;20671;-59
2022/04/13 07:57:16;;;;;;;10.80;7.40;;;15.80;99.90;;;;;;4895440;29;20245;-59
2022/04/13 07:59:44;;;;;;;9.00;6.27;;;15.90;99.90;;;;;;4896859;29;20665;-59
2022/04/13 08:02:13;;;;;;;8.53;6.67;;;15.90;99.90;;;;;;4904002;29;20247;-59
2022/04/13 08:04:41;;;;;;;10.33;6.70;;;16.00;99.90;;;;;;4895681;29;20773;-59
2022/04/13 08:07:09;;;;;;;8.83;6.57;;;16.00;99.90;;;;;;4899555;29;20268;-59
2022/04/13 08:09:37;;;;;;;7.53;6.47;;;16.20;99.90;;;;;;4895675;29;20248;-59
2022/04/13 08:12:06;;;;;;;9.43;6.23;;;16.30;99.90;;;;;;4895481;29;20320;-59
2022/04/13 08:14:35;;;;;;;8.80;6.40;;;16.40;99.90;;;;;;4895100;29;20241;-59
2022/04/13 08:17:05;;;;;;;9.03;6.93;;;16.50;99.90;;;;;;4899249;29;20686;-59
2022/04/13 08:19:33;;;;;;;9.27;7.20;;;16.60;99.90;;;;;;4895064;29;20332;-60
2022/04/13 08:22:01;;;;;;;10.77;7.20;;;16.80;99.90;;;;;;4895199;29;20232;-59
2022/04/13 08:24:30;;;;;;;9.20;6.47;;;16.80;99.90;;;;;;4895332;29;20263;-60
2022/04/13 08:26:59;;;;;;;7.20;6.50;;;17.10;99.90;;;;;;4894932;29;20333;-60
2022/04/13 08:29:28;;;;;;;9.03;6.53;;;17.30;99.90;;;;;;4898378;29;20241;-60
2022/04/13 08:31:57;;;;;;;10.00;6.73;;;17.90;99.90;;;;;;4902857;29;20237;-59
2022/04/13 08:34:25;;;;;;;8.43;6.93;;;18.20;99.90;;;;;;4898585;29;20249;-59
2022/04/13 08:36:54;;;;;;;8.57;6.33;;;18.10;99.90;;;;;;4902776;29;20257;-60
2022/04/13 08:39:22;;;;;;;8.90;6.67;;;17.80;99.90;;;;;;4898616;29;20705;-59
2022/04/13 08:41:52;;;;;;;9.20;6.57;;;17.50;99.90;;;;;;4905096;29;20780;-60
2022/04/13 08:44:28;;;;;;;9.23;6.63;;;17.30;99.90;;;;;;4901149;29;20241;-60
2022/04/13 08:47:03;;;;;;;13.60;7.07;;;17.20;99.90;;;;;;4902654;29;20725;-59
2022/04/13 08:49:33;;;;;;;9.97;6.97;;;17.20;99.90;;;;;;4898554;29;20254;-59
2022/04/13 08:52:04;;;;;;;12.07;8.00;;;17.40;99.90;;;;;;4898711;29;20246;-59
2022/04/13 08:54:38;;;;;;;14.10;7.70;;;17.50;99.90;;;;;;4898664;29;20683;-59
2022/04/13 08:57:11;;;;;;;10.27;7.20;;;17.70;99.90;;;;;;4894522;29;20248;-60
2022/04/13 08:59:57;;;;;;;10.27;7.23;;;17.70;99.90;;;;;;4898136;29;20241;-60
2022/04/13 09:02:39;;;;;;;11.43;7.90;;;17.80;99.90;;;;;;4903418;29;20328;-59
2022/04/13 09:05:10;;;;;;;11.37;7.53;;;17.90;99.90;;;;;;4902154;29;20248;-59
2022/04/13 09:07:40;;;;;;;9.57;8.03;;;18.10;99.90;;;;;;4898200;29;20765;-60
2022/04/13 09:10:14;;;;;;;9.47;7.13;;;18.50;99.90;;;;;;4902043;29;20254;-59
2022/04/13 09:12:43;;;;;;;13.50;7.37;;;18.90;99.90;;;;;;4897855;29;20285;-59
2022/04/13 09:15:13;;;;;;;10.77;7.10;;;19.20;99.90;;;;;;4902259;29;20328;-59
2022/04/13 09:17:43;;;;;;;9.17;7.33;;;19.40;99.90;;;;;;4890700;29;20262;-60
2022/04/13 09:20:12;;;;;;;9.50;6.83;;;19.60;99.90;;;;;;4901958;29;20243;-60
2022/04/13 09:22:41;;;;;;;10.47;7.50;;;19.80;99.90;;;;;;4903669;29;20713;-59
2022/04/13 09:25:10;;;;;;;10.90;8.30;;;20.00;99.90;;;;;;4901825;29;20299;-59
2022/04/13 09:27:40;;;;;;;9.43;8.10;;;20.10;99.90;;;;;;4897923;29;20600;-60
2022/04/13 09:30:09;;;;;;;12.10;8.03;;;20.40;99.90;;;;;;4899159;29;20264;-60
2022/04/13 09:32:38;;;;;;;11.43;8.33;;;20.50;99.90;;;;;;4889842;29;20234;-59
2022/04/13 09:35:09;;;;;;;9.87;7.10;;;20.80;99.90;;;;;;4898006;29;20710;-59
2022/04/13 09:37:37;;;;;;;15.77;8.53;;;21.00;99.90;;;;;;4897484;29;20264;-60
2022/04/13 09:40:06;;;;;;;10.50;8.10;;;21.30;99.90;;;;;;4899781;29;20251;-59
2022/04/13 09:42:36;;;;;;;10.70;7.90;;;21.50;99.90;;;;;;4903061;29;20304;-59
2022/04/13 09:45:05;;;;;;;11.00;8.70;;;21.70;99.90;;;;;;4897983;29;20248;-59
2022/04/13 09:47:34;;;;;;;12.90;8.97;;;21.80;99.90;;;;;;4896794;29;20283;-59
2022/04/13 09:50:02;;;;;;;9.77;8.07;;;22.30;99.90;;;;;;4900421;29;20244;-60
2022/04/13 09:52:40;;;;;;;13.03;8.83;;;22.60;99.90;;;;;;4898020;29;20732;-59
2022/04/13 09:55:10;;;;;;;14.33;9.00;;;22.80;99.90;;;;;;4901178;29;20328;-59
2022/04/13 09:57:41;;;;;;;14.10;9.03;;;22.70;99.90;;;;;;4897511;29;20642;-60
2022/04/13 10:00:10;;;;;;;11.57;8.60;;;23.00;99.90;;;;;;4902134;29;20327;-59
2022/04/13 10:02:42;;;;;;;14.93;8.83;;;23.10;99.90;;;;;;4902375;29;20716;-59
2022/04/13 10:05:21;;;;;;;12.97;8.53;;;23.20;99.90;;;;;;4897212;29;20574;-60
2022/04/13 10:08:01;;;;;;;17.10;9.83;;;23.10;99.90;;;;;;4897018;29;20241;-59
2022/04/13 10:10:30;;;;;;;17.33;9.00;;;23.30;99.90;;;;;;4897073;29;20275;-59
2022/04/13 10:12:58;;;;;;;15.27;8.87;;;23.20;99.90;;;;;;4897239;29;20245;-59
2022/04/13 10:15:27;;;;;;;15.47;9.40;;;23.40;99.90;;;;;;4896712;29;20261;-60
2022/04/13 10:17:59;;;;;;;14.47;8.47;;;23.20;99.90;;;;;;4897271;29;20593;-59
2022/04/13 10:20:44;;;;;;;15.27;8.93;;;22.70;99.90;;;;;;4896623;29;20241;-60
2022/04/13 10:23:14;;;;;;;16.87;9.97;;;22.40;99.90;;;;;;4896712;29;20288;-59
2022/04/13 10:25:43;;;;;;;15.17;8.70;;;22.60;99.90;;;;;;4896455;29;20244;-60
2022/04/13 10:28:13;;;;;;;16.20;9.17;;;22.90;99.90;;;;;;4896835;29;20653;-60
2022/04/13 10:30:42;;;;;;;14.17;8.10;;;23.00;99.90;;;;;;4897799;29;20749;-60
2022/04/13 10:33:12;;;;;;;14.00;8.27;;;22.90;99.90;;;;;;4896843;29;20256;-59
2022/04/13 10:35:42;;;;;;;15.60;8.30;;;23.00;99.90;;;;;;4896622;29;20237;-60
2022/04/13 10:38:13;;;;;;;15.10;9.00;;;23.10;99.90;;;;;;4896682;29;20296;-59
2022/04/13 10:40:43;;;;;;;14.30;7.90;;;23.60;99.90;;;;;;4896381;29;20328;-59
2022/04/13 10:43:12;;;;;;;13.50;8.27;;;24.20;99.90;;;;;;4896479;29;20598;-60
2022/04/13 10:45:46;;;;;;;12.70;6.57;;;24.60;99.90;;;;;;4896038;29;20237;-60
2022/04/13 10:48:19;;;;;;;10.80;7.07;;;24.90;99.90;;;;;;4896603;29;20246;-60
2022/04/13 10:50:54;;;;;;;15.43;8.13;;;25.50;99.90;;;;;;4896232;29;20241;-60
2022/04/13 10:53:25;;;;;;;14.67;8.47;;;25.40;99.90;;;;;;4896359;29;20770;-60
2022/04/13 10:56:00;;;;;;;15.43;8.67;;;25.40;99.90;;;;;;4896143;29;20307;-60
2022/04/13 10:58:48;;;;;;;14.13;7.90;;;25.30;99.90;;;;;;4895977;29;20254;-60
2022/04/13 11:01:20;;;;;;;12.13;7.90;;;25.40;99.90;;;;;;4897021;29;20284;-60
2022/04/13 11:03:48;;;;;;;18.77;9.70;;;25.60;99.90;;;;;;4896083;29;20325;-60
2022/04/13 11:06:17;;;;;;;15.30;7.33;;;25.40;99.90;;;;;;4895932;29;20243;-60
2022/04/13 11:08:51;;;;;;;13.90;8.17;;;25.50;99.90;;;;;;4896226;29;20247;-60
2022/04/13 11:11:21;;;;;;;10.87;7.80;;;26.00;99.90;;;;;;4900100;29;20247;-59
2022/04/13 11:13:51;;;;;;;11.30;6.80;;;25.80;99.90;;;;;;4896171;29;20238;-60
2022/04/13 11:16:21;;;;;;;11.87;8.10;;;26.00;99.90;;;;;;4895956;29;20253;-60
2022/04/13 11:19:20;;;;;;;13.60;7.30;;;26.00;99.90;;;;;;4895971;29;20315;-60
2022/04/13 11:22:17;;;;;;;13.77;8.70;;;26.10;99.90;;;;;;4901506;29;20272;-60
2022/04/13 11:24:58;;;;;;;13.50;7.90;;;26.50;99.90;;;;;;4863167;29;20256;-60
2022/04/13 11:27:50;;;;;;;12.60;7.67;;;26.30;99.90;;;;;;4895766;29;20240;-60
2022/04/13 11:30:19;;;;;;;13.37;7.77;;;26.40;99.90;;;;;;4896745;29;20303;-60
2022/04/13 11:32:48;;;;;;;14.43;7.37;;;26.40;99.90;;;;;;4895714;29;20253;-60
2022/04/13 11:35:25;;;;;;;13.37;9.07;;;26.10;99.90;;;;;;4895618;29;20247;-60
2022/04/13 11:38:12;;;;;;;13.20;8.20;;;26.10;99.90;;;;;;4895724;29;20331;-60
2022/04/13 11:41:04;;;;;;;16.90;8.83;;;26.10;99.90;;;;;;4895447;29;20374;-60
2022/04/13 11:43:32;;;;;;;14.70;8.50;;;25.90;99.90;;;;;;4895290;29;20318;-60
2022/04/13 11:46:02;;;;;;;15.27;9.33;;;25.90;99.90;;;;;;4895710;29;20681;-60
2022/04/13 11:48:36;;;;;;;14.47;8.20;;;25.70;99.90;;;;;;4895418;29;20300;-60
2022/04/13 11:51:27;;;;;;;15.63;8.67;;;25.70;99.90;;;;;;4899510;29;20236;-60
2022/04/13 11:53:55;;;;;;;17.57;9.97;;;25.90;99.90;;;;;;4895515;29;20325;-60
2022/04/13 11:56:36;;;;;;;12.47;8.13;;;25.50;99.90;;;;;;4895559;29;20242;-60
2022/04/13 11:59:05;;;;;;;14.30;8.93;;;25.20;99.90;;;;;;4895790;29;20259;-60
2022/04/13 12:01:34;;;;;;;15.90;8.27;;;25.00;99.90;;;;;;4895421;29;20247;-60
2022/04/13 12:04:06;;;;;;;13.03;7.77;;;24.90;99.90;;;;;;4898415;29;20321;-60
2022/04/13 12:06:36;;;;;;;15.10;7.97;;;24.90;99.90;;;;;;4899026;29;20303;-60
2022/04/13 12:09:07;;;;;;;12.73;7.97;;;25.00;99.90;;;;;;4899648;29;20242;-60
2022/04/13 12:11:42;;;;;;;14.30;8.57;;;24.90;99.90;;;;;;4899290;29;20310;-60
2022/04/13 12:14:10;;;;;;;15.47;8.93;;;24.60;99.90;;;;;;4899457;29;20244;-60
2022/04/13 12:16:39;;;;;;;12.30;8.33;;;24.70;99.90;;;;;;4899085;29;20230;-60
2022/04/13 12:19:10;;;;;;;16.90;9.93;;;24.70;99.90;;;;;;4899352;29;20251;-60
2022/04/13 12:21:40;;;;;;;16.57;10.00;;;24.50;99.90;;;;;;4904151;29;20265;-60
2022/04/13 12:24:11;;;;;;;17.30;10.00;;;23.90;99.90;;;;;;4902963;29;20247;-60
2022/04/13 12:26:41;;;;;;;13.30;8.80;;;23.50;99.90;;;;;;4902757;29;20356;-60
2022/04/13 12:29:14;;;;;;;15.63;9.50;;;23.60;99.90;;;;;;4900011;29;20323;-60
2022/04/13 12:31:47;;;;;;;15.73;9.60;;;23.70;99.90;;;;;;4895362;29;20244;-60
2022/04/13 12:34:16;;;;;;;14.53;9.47;;;23.80;99.90;;;;;;4898718;29;20238;-60
2022/04/13 12:36:50;;;;;;;14.90;9.33;;;23.60;99.90;;;;;;4898527;29;20249;-60
2022/04/13 12:39:18;;;;;;;15.47;9.37;;;23.50;99.90;;;;;;4898834;29;20242;-60
2022/04/13 12:41:48;;;;;;;13.87;8.57;;;23.70;99.90;;;;;;4898368;29;20241;-60
2022/04/13 12:44:19;;;;;;;14.30;9.10;;;23.60;99.90;;;;;;4898828;29;20265;-60
2022/04/13 12:46:47;;;;;;;10.47;7.87;;;23.50;99.90;;;;;;4898383;29;20698;-60
2022/04/13 12:49:20;;;;;;;17.20;9.63;;;23.50;99.90;;;;;;4898688;29;20249;-60
2022/04/13 12:51:49;;;;;;;14.00;8.53;;;23.70;99.90;;;;;;4898609;29;20705;-60
2022/04/13 12:54:19;;;;;;;13.93;8.30;;;23.90;99.90;;;;;;4898331;29;20256;-60
2022/04/13 12:56:50;;;;;;;15.60;8.90;;;23.90;99.90;;;;;;4898212;29;20254;-60